createdAt,value
2018-12-18T00:01:05.499Z,2.75
2018-12-18T00:02:15.465Z,2.72
2018-12-18T00:03:25.394Z,2.7
2018-12-18T00:04:35.082Z,2.75
2018-12-18T00:05:45.047Z,2.73
2018-12-18T00:06:54.481Z,2.7
2018-12-18T00:08:04.164Z,2.72
2018-12-18T00:09:14.100Z,2.7
2018-12-18T00:10:24.061Z,2.72
2018-12-18T00:11:34.006Z,2.69
2018-12-18T00:12:43.951Z,2.68
2018-12-18T00:13:53.641Z,2.75
2018-12-18T00:15:03.572Z,2.75
2018-12-18T00:16:13.276Z,2.76
2018-12-18T00:17:22.956Z,2.72
2018-12-18T00:18:32.415Z,2.72
2018-12-18T00:19:41.843Z,2.75
2018-12-18T00:20:51.797Z,2.8
2018-12-18T00:22:01.741Z,2.87
2018-12-18T00:23:11.672Z,2.82
2018-12-18T00:24:21.616Z,2.82
2018-12-18T00:25:31.300Z,2.87
2018-12-18T00:26:41.012Z,2.87
2018-12-18T00:27:50.957Z,2.85
2018-12-18T00:29:00.902Z,2.79
2018-12-18T00:30:10.584Z,2.91
2018-12-18T00:31:20.522Z,2.91
2018-12-18T00:32:30.210Z,2.8
2018-12-18T00:33:45.877Z,2.87
2018-12-18T00:34:55.780Z,2.83
2018-12-18T00:36:05.753Z,2.79
2018-12-18T00:37:15.707Z,2.82
2018-12-18T00:38:25.409Z,2.83
2018-12-18T00:39:35.089Z,2.72
2018-12-18T00:40:44.782Z,2.79
2018-12-18T00:41:54.723Z,2.8
2018-12-18T00:43:04.414Z,2.83
2018-12-18T00:44:14.114Z,2.79
2018-12-18T00:45:24.051Z,2.76
2018-12-18T00:46:33.478Z,2.82
2018-12-18T00:47:43.188Z,2.87
2018-12-18T00:48:53.138Z,2.9
2018-12-18T00:50:02.818Z,2.85
2018-12-18T00:51:12.555Z,2.9
2018-12-18T00:52:22.026Z,2.83
2018-12-18T00:53:31.711Z,2.83
2018-12-18T00:54:41.405Z,2.88
2018-12-18T00:55:51.349Z,2.91
2018-12-18T00:57:01.293Z,2.87
2018-12-18T00:58:10.732Z,2.87
2018-12-18T00:59:20.683Z,2.9
2018-12-18T01:00:30.451Z,2.94
2018-12-18T01:01:40.141Z,3
2018-12-18T01:02:49.589Z,3
2018-12-18T01:03:59.529Z,2.94
2018-12-18T01:05:09.476Z,3
2018-12-18T01:06:19.172Z,2.88
2018-12-18T01:07:29.118Z,2.91
2018-12-18T01:08:39.066Z,2.88
2018-12-18T01:09:48.756Z,2.73
2018-12-18T01:10:58.196Z,2.88
2018-12-18T01:12:07.630Z,2.79
2018-12-18T01:13:17.567Z,2.7
2018-12-18T01:14:27.521Z,2.75
2018-12-18T01:15:36.882Z,2.68
2018-12-18T01:16:46.314Z,2.75
2018-12-18T01:17:56.255Z,2.75
2018-12-18T01:19:05.939Z,2.76
2018-12-18T01:20:15.123Z,2.83
2018-12-18T01:21:25.056Z,2.83
2018-12-18T01:22:34.977Z,2.87
2018-12-18T01:23:44.956Z,2.83
2018-12-18T01:24:54.633Z,2.9
2018-12-18T01:26:04.569Z,2.87
2018-12-18T01:27:14.255Z,2.87
2018-12-18T01:28:23.767Z,2.85
2018-12-18T01:29:33.457Z,2.91
2018-12-18T01:30:43.147Z,3
2018-12-18T01:31:53.083Z,2.95
2018-12-18T01:33:02.781Z,2.97
2018-12-18T01:34:12.480Z,2.93
2018-12-18T01:35:22.431Z,2.97
2018-12-18T01:36:32.115Z,2.9
2018-12-18T01:37:42.056Z,2.98
2018-12-18T01:38:51.998Z,3
2018-12-18T01:40:01.937Z,2.95
2018-12-18T01:41:11.625Z,2.94
2018-12-18T01:42:21.570Z,2.98
2018-12-18T01:43:31.522Z,2.93
2018-12-18T01:44:41.449Z,2.94
2018-12-18T01:45:51.175Z,2.94
2018-12-18T01:47:01.131Z,2.93
2018-12-18T01:48:11.077Z,3.01
2018-12-18T01:49:20.765Z,3.08
2018-12-18T01:50:30.700Z,3.08
2018-12-18T01:51:40.637Z,3.03
2018-12-18T01:52:50.584Z,3.05
2018-12-18T01:54:00.283Z,3.01
2018-12-18T01:55:10.230Z,3.08
2018-12-18T01:56:20.170Z,3.06
2018-12-18T01:57:29.860Z,3.06
2018-12-18T01:58:39.813Z,3.13
2018-12-18T01:59:49.763Z,3.11
2018-12-18T02:00:59.203Z,3.11
2018-12-18T02:02:08.890Z,3.12
2018-12-18T02:03:18.831Z,3.18
2018-12-18T02:04:28.797Z,3.11
2018-12-18T02:05:38.503Z,3.13
2018-12-18T02:06:48.193Z,3.16
2018-12-18T02:07:57.921Z,3.24
2018-12-18T02:09:07.859Z,3.16
2018-12-18T02:10:17.551Z,3.18
2018-12-18T02:11:27.497Z,3.11
2018-12-18T02:12:37.431Z,3.19
2018-12-18T02:13:47.135Z,3.22
2018-12-18T02:14:56.842Z,3.27
2018-12-18T02:16:06.539Z,3.26
2018-12-18T02:17:16.476Z,3.27
2018-12-18T02:18:26.420Z,3.29
2018-12-18T02:19:36.356Z,3.24
2018-12-18T02:20:45.801Z,3.24
2018-12-18T02:21:55.236Z,3.33
2018-12-18T02:23:04.674Z,3.4
2018-12-18T02:24:14.611Z,3.24
2018-12-18T02:25:24.311Z,3.33
2018-12-18T02:26:34.233Z,3.3
2018-12-18T02:27:44.177Z,3.29
2018-12-18T02:28:53.852Z,3.31
2018-12-18T02:30:03.553Z,3.33
2018-12-18T02:31:13.509Z,3.3
2018-12-18T02:32:23.217Z,3.36
2018-12-18T02:33:32.937Z,3.29
2018-12-18T02:34:42.887Z,3.31
2018-12-18T02:35:52.580Z,3.31
2018-12-18T02:37:02.259Z,3.33
2018-12-18T02:38:12.195Z,3.37
2018-12-18T02:39:21.881Z,3.4
2018-12-18T02:40:31.818Z,3.36
2018-12-18T02:41:41.764Z,3.33
2018-12-18T02:42:51.214Z,3.37
2018-12-18T02:44:01.168Z,3.37
2018-12-18T02:45:10.946Z,3.49
2018-12-18T02:46:20.872Z,3.49
2018-12-18T02:47:30.583Z,3.4
2018-12-18T02:48:40.551Z,3.55
2018-12-18T02:49:50.259Z,3.49
2018-12-18T02:51:00.993Z,3.5
2018-12-18T02:52:10.928Z,3.55
2018-12-18T02:53:20.885Z,3.45
2018-12-18T02:54:30.464Z,3.45
2018-12-18T02:55:40.412Z,3.5
2018-12-18T02:56:50.123Z,3.48
2018-12-18T02:58:00.064Z,3.49
2018-12-18T02:59:10.065Z,3.46
2018-12-18T03:00:19.771Z,3.48
2018-12-18T03:01:29.459Z,3.5
2018-12-18T03:02:39.396Z,3.52
2018-12-18T03:03:49.333Z,3.49
2018-12-18T03:04:59.017Z,3.49
2018-12-18T03:06:08.963Z,3.52
2018-12-18T03:07:18.927Z,3.49
2018-12-18T03:08:28.855Z,3.53
2018-12-18T03:09:38.789Z,3.53
2018-12-18T03:10:48.238Z,3.52
2018-12-18T03:11:58.201Z,3.48
2018-12-18T03:13:07.900Z,3.49
2018-12-18T03:14:17.837Z,3.55
2018-12-18T03:15:27.531Z,3.48
2018-12-18T03:16:37.213Z,3.5
2018-12-18T03:17:46.919Z,3.52
2018-12-18T03:18:56.858Z,3.46
2018-12-18T03:20:06.291Z,3.58
2018-12-18T03:21:16.253Z,3.49
2018-12-18T03:22:26.187Z,3.52
2018-12-18T03:23:36.123Z,3.52
2018-12-18T03:24:46.069Z,3.48
2018-12-18T03:25:55.521Z,3.5
2018-12-18T03:27:05.501Z,3.5
2018-12-18T03:28:14.945Z,3.5
2018-12-18T03:29:24.623Z,3.48
2018-12-18T03:30:34.374Z,3.48
2018-12-18T03:31:44.290Z,3.58
2018-12-18T03:32:54.072Z,3.5
2018-12-18T03:34:04.032Z,3.46
2018-12-18T03:35:13.978Z,3.41
2018-12-18T03:36:23.905Z,3.46
2018-12-18T03:37:33.839Z,3.37
2018-12-18T03:38:43.540Z,3.31
2018-12-18T03:39:53.227Z,3.33
2018-12-18T03:41:03.167Z,3.34
2018-12-18T03:42:12.905Z,3.33
2018-12-18T03:43:22.619Z,3.31
2018-12-18T03:44:32.555Z,3.27
2018-12-18T03:45:42.248Z,3.36
2018-12-18T03:46:51.975Z,3.33
2018-12-18T03:48:01.674Z,3.36
2018-12-18T03:49:11.379Z,3.33
2018-12-18T03:50:21.093Z,3.33
2018-12-18T03:51:31.049Z,3.33
2018-12-18T03:52:40.989Z,3.31
2018-12-18T03:53:50.676Z,3.33
2018-12-18T03:55:00.371Z,3.34
2018-12-18T03:56:10.369Z,3.33
2018-12-18T03:57:20.338Z,3.33
2018-12-18T03:58:30.020Z,3.3
2018-12-18T03:59:39.948Z,3.36
2018-12-18T04:00:49.625Z,3.33
2018-12-18T04:01:59.068Z,3.33
2018-12-18T04:03:09.041Z,3.34
2018-12-18T04:04:18.230Z,3.34
2018-12-18T04:05:28.163Z,3.37
2018-12-18T04:06:37.856Z,3.36
2018-12-18T04:07:47.809Z,3.33
2018-12-18T04:08:57.567Z,3.43
2018-12-18T04:10:07.248Z,3.46
2018-12-18T04:11:17.204Z,3.46
2018-12-18T04:12:27.147Z,3.43
2018-12-18T04:13:36.354Z,3.52
2018-12-18T04:14:46.134Z,3.53
2018-12-18T04:15:55.833Z,3.46
2018-12-18T04:17:05.770Z,3.49
2018-12-18T04:18:15.460Z,3.48
2018-12-18T04:19:25.405Z,3.52
2018-12-18T04:20:35.369Z,3.48
2018-12-18T04:21:44.814Z,3.55
2018-12-18T04:22:54.770Z,3.59
2018-12-18T04:24:04.505Z,3.49
2018-12-18T04:25:14.446Z,3.56
2018-12-18T04:26:24.131Z,3.5
2018-12-18T04:27:34.066Z,3.56
2018-12-18T04:28:44.031Z,3.59
2018-12-18T04:29:53.974Z,3.59
2018-12-18T04:31:03.413Z,3.63
2018-12-18T04:32:13.355Z,3.61
2018-12-18T04:33:23.326Z,3.5
2018-12-18T04:34:33.255Z,3.53
2018-12-18T04:35:50.407Z,3.52
2018-12-18T04:37:00.103Z,3.55
2018-12-18T04:38:09.798Z,3.55
2018-12-18T04:39:19.736Z,3.59
2018-12-18T04:40:29.192Z,3.59
2018-12-18T04:41:38.902Z,3.55
2018-12-18T04:42:49.009Z,3.63
2018-12-18T04:43:58.948Z,3.67
2018-12-18T04:45:08.908Z,3.59
2018-12-18T04:46:18.607Z,3.55
2018-12-18T04:47:28.067Z,3.59
2018-12-18T04:48:37.753Z,3.55
2018-12-18T04:49:47.683Z,3.59
2018-12-18T04:50:57.633Z,3.58
2018-12-18T04:52:07.566Z,3.59
2018-12-18T04:53:17.290Z,3.55
2018-12-18T04:54:27.246Z,3.64
2018-12-18T04:55:37.181Z,3.67
2018-12-18T04:56:46.877Z,3.63
2018-12-18T04:57:56.829Z,3.68
2018-12-18T04:59:06.276Z,3.7
2018-12-18T05:00:16.219Z,3.66
2018-12-18T05:01:26.163Z,3.66
2018-12-18T05:02:35.855Z,3.68
2018-12-18T05:03:45.547Z,3.67
2018-12-18T05:04:55.585Z,3.63
2018-12-18T05:06:05.280Z,3.67
2018-12-18T05:07:14.984Z,3.67
2018-12-18T05:08:24.969Z,3.59
2018-12-18T05:09:34.676Z,3.7
2018-12-18T05:10:44.622Z,3.63
2018-12-18T05:11:54.601Z,3.71
2018-12-18T05:13:04.538Z,3.7
2018-12-18T05:14:14.223Z,3.71
2018-12-18T05:15:23.921Z,3.67
2018-12-18T05:16:33.628Z,3.77
2018-12-18T05:17:43.325Z,3.71
2018-12-18T05:18:53.289Z,3.68
2018-12-18T05:20:02.975Z,3.73
2018-12-18T05:21:12.913Z,3.68
2018-12-18T05:22:22.874Z,3.67
2018-12-18T05:23:32.822Z,3.68
2018-12-18T05:24:42.757Z,3.73
2018-12-18T05:25:52.696Z,3.67
2018-12-18T05:27:02.630Z,3.81
2018-12-18T05:28:12.597Z,3.73
2018-12-18T05:29:23.905Z,3.68
2018-12-18T05:30:33.849Z,3.7
2018-12-18T05:31:43.813Z,3.68
2018-12-18T05:32:53.783Z,3.86
2018-12-18T05:34:03.482Z,3.71
2018-12-18T05:35:13.413Z,3.67
2018-12-18T05:36:23.344Z,3.71
2018-12-18T05:37:33.638Z,3.71
2018-12-18T05:38:43.564Z,3.81
2018-12-18T05:39:53.241Z,3.7
2018-12-18T05:41:03.231Z,3.77
2018-12-18T05:42:13.180Z,3.7
2018-12-18T05:43:23.128Z,3.85
2018-12-18T05:44:33.906Z,3.86
2018-12-18T05:45:43.856Z,3.84
2018-12-18T05:46:53.998Z,3.86
2018-12-18T05:48:03.429Z,3.81
2018-12-18T05:49:13.418Z,3.81
2018-12-18T05:50:22.666Z,3.81
2018-12-18T05:51:32.114Z,3.82
2018-12-18T05:52:41.811Z,3.88
2018-12-18T05:53:51.488Z,3.91
2018-12-18T05:55:01.446Z,3.78
2018-12-18T05:56:12.964Z,3.89
2018-12-18T05:57:22.652Z,3.78
2018-12-18T05:58:32.584Z,3.82
2018-12-18T05:59:42.529Z,3.86
2018-12-18T06:00:52.470Z,3.82
2018-12-18T06:02:02.394Z,3.85
2018-12-18T06:03:11.894Z,3.82
2018-12-18T06:04:21.851Z,3.88
2018-12-18T06:05:31.558Z,3.91
2018-12-18T06:06:41.519Z,3.81
2018-12-18T06:07:50.945Z,3.92
2018-12-18T06:09:00.621Z,3.81
2018-12-18T06:10:10.308Z,3.78
2018-12-18T06:11:20.257Z,3.84
2018-12-18T06:12:30.250Z,3.86
2018-12-18T06:13:40.184Z,3.86
2018-12-18T06:14:49.872Z,3.81
2018-12-18T06:15:59.552Z,3.89
2018-12-18T06:17:09.249Z,3.94
2018-12-18T06:18:19.181Z,3.99
2018-12-18T06:19:29.127Z,3.99
2018-12-18T06:20:39.078Z,4.02
2018-12-18T06:21:48.760Z,3.95
2018-12-18T06:22:58.489Z,3.94
2018-12-18T06:24:08.428Z,3.94
2018-12-18T06:25:19.140Z,3.95
2018-12-18T06:26:28.844Z,3.86
2018-12-18T06:27:38.283Z,3.91
2018-12-18T06:28:48.229Z,3.92
2018-12-18T06:29:57.679Z,3.92
2018-12-18T06:31:07.624Z,3.96
2018-12-18T06:32:17.555Z,3.96
2018-12-18T06:33:27.491Z,3.95
2018-12-18T06:34:37.195Z,3.96
2018-12-18T06:35:47.129Z,3.92
2018-12-18T06:36:56.832Z,3.91
2018-12-18T06:38:06.260Z,3.92
2018-12-18T06:39:16.220Z,3.89
2018-12-18T06:40:26.155Z,3.91
2018-12-18T06:41:36.108Z,3.99
2018-12-18T06:42:46.042Z,3.91
2018-12-18T06:43:56.041Z,3.96
2018-12-18T06:45:05.992Z,3.85
2018-12-18T06:46:15.931Z,3.95
2018-12-18T06:47:25.381Z,3.85
2018-12-18T06:48:35.092Z,3.82
2018-12-18T06:49:45.073Z,3.95
2018-12-18T06:50:54.760Z,3.92
2018-12-18T06:52:04.696Z,3.82
2018-12-18T06:53:14.384Z,3.92
2018-12-18T06:54:24.093Z,3.92
2018-12-18T06:55:33.861Z,3.92
2018-12-18T06:56:43.818Z,3.95
2018-12-18T06:57:53.511Z,3.89
2018-12-18T06:59:03.460Z,3.91
2018-12-18T07:00:13.407Z,4.02
2018-12-18T07:01:22.874Z,3.99
2018-12-18T07:02:32.863Z,3.96
2018-12-18T07:03:42.795Z,3.96
2018-12-18T07:04:52.493Z,3.95
2018-12-18T07:06:02.436Z,3.94
2018-12-18T07:07:11.878Z,3.95
2018-12-18T07:08:21.849Z,3.96
2018-12-18T07:09:31.797Z,3.92
2018-12-18T07:10:41.490Z,4.03
2018-12-18T07:11:51.171Z,3.94
2018-12-18T07:13:01.127Z,4.02
2018-12-18T07:14:10.829Z,3.99
2018-12-18T07:15:20.527Z,3.96
2018-12-18T07:16:30.491Z,4.03
2018-12-18T07:17:41.251Z,3.96
2018-12-18T07:18:51.195Z,3.96
2018-12-18T07:20:00.893Z,4
2018-12-18T07:21:10.591Z,4.1
2018-12-18T07:22:20.320Z,4.09
2018-12-18T07:23:30.313Z,4.02
2018-12-18T07:24:40.263Z,4.07
2018-12-18T07:25:50.228Z,4.06
2018-12-18T07:26:59.671Z,4.12
2018-12-18T07:28:09.379Z,4.04
2018-12-18T07:29:19.329Z,4.06
2018-12-18T07:30:28.779Z,4.16
2018-12-18T07:31:38.740Z,4.18
2018-12-18T07:32:48.443Z,4.13
2018-12-18T07:33:58.145Z,4.21
2018-12-18T07:35:07.844Z,4.22
2018-12-18T07:36:17.277Z,4.18
2018-12-18T07:37:27.212Z,4.2
2018-12-18T07:38:37.180Z,4.2
2018-12-18T07:39:46.868Z,4.28
2018-12-18T07:40:56.573Z,4.2
2018-12-18T07:42:06.264Z,4.18
2018-12-18T07:43:15.949Z,4.14
2018-12-18T07:44:25.887Z,4.22
2018-12-18T07:45:35.313Z,4.21
2018-12-18T07:46:45.264Z,4.28
2018-12-18T07:47:55.228Z,4.25
2018-12-18T07:49:04.929Z,4.28
2018-12-18T07:50:14.873Z,4.28
2018-12-18T07:51:24.573Z,4.28
2018-12-18T07:52:34.521Z,4.32
2018-12-18T07:53:44.484Z,4.36
2018-12-18T07:54:54.654Z,4.43
2018-12-18T07:56:05.177Z,4.32
2018-12-18T07:57:15.120Z,4.4
2018-12-18T07:58:24.819Z,4.49
2018-12-18T07:59:34.818Z,4.48
2018-12-18T08:00:44.531Z,4.45
2018-12-18T08:01:54.238Z,4.5
2018-12-18T08:03:03.938Z,4.5
2018-12-18T08:04:13.635Z,4.48
2018-12-18T08:05:29.648Z,4.57
2018-12-18T08:06:39.828Z,4.52
2018-12-18T08:07:49.773Z,4.63
2018-12-18T08:08:59.710Z,4.53
2018-12-18T08:10:09.403Z,4.53
2018-12-18T08:11:19.388Z,4.5
2018-12-18T08:12:29.334Z,4.58
2018-12-18T08:13:39.304Z,4.61
2018-12-18T08:14:49.001Z,4.61
2018-12-18T08:15:58.698Z,4.7
2018-12-18T08:17:08.647Z,4.63
2018-12-18T08:18:18.336Z,4.6
2018-12-18T08:19:28.290Z,4.6
2018-12-18T08:20:37.987Z,4.58
2018-12-18T08:21:47.670Z,4.58
2018-12-18T08:22:57.361Z,4.63
2018-12-18T08:24:07.306Z,4.64
2018-12-18T08:25:16.750Z,4.68
2018-12-18T08:26:26.465Z,4.61
2018-12-18T08:27:36.160Z,4.63
2018-12-18T08:28:46.126Z,4.6
2018-12-18T08:29:55.870Z,4.61
2018-12-18T08:31:05.380Z,4.67
2018-12-18T08:32:15.332Z,4.68
2018-12-18T08:33:25.300Z,4.74
2018-12-18T08:34:34.742Z,4.66
2018-12-18T08:35:44.690Z,4.71
2018-12-18T08:36:54.388Z,4.7
2018-12-18T08:38:04.095Z,4.74
2018-12-18T08:39:13.801Z,4.75
2018-12-18T08:40:23.775Z,4.75
2018-12-18T08:41:33.712Z,4.74
2018-12-18T08:42:43.874Z,4.74
2018-12-18T08:43:53.650Z,4.68
2018-12-18T08:45:03.350Z,4.7
2018-12-18T08:46:15.223Z,4.75
2018-12-18T08:47:24.912Z,4.68
2018-12-18T08:48:34.881Z,4.71
2018-12-18T08:49:44.840Z,4.64
2018-12-18T08:50:54.565Z,4.68
2018-12-18T08:52:04.539Z,4.74
2018-12-18T08:53:14.545Z,4.7
2018-12-18T08:54:24.480Z,4.78
2018-12-18T08:55:34.457Z,4.7
2018-12-18T08:56:44.167Z,4.7
2018-12-18T08:57:53.869Z,4.7
2018-12-18T08:59:03.802Z,4.67
2018-12-18T09:00:13.782Z,4.71
2018-12-18T09:01:23.221Z,4.68
2018-12-18T09:02:32.970Z,4.78
2018-12-18T09:03:43.662Z,4.79
2018-12-18T09:04:54.866Z,4.7
2018-12-18T09:06:05.863Z,4.78
2018-12-18T09:07:15.567Z,4.78
2018-12-18T09:08:25.515Z,4.83
2018-12-18T09:09:35.503Z,4.87
2018-12-18T09:10:45.475Z,4.71
2018-12-18T09:11:55.174Z,4.71
2018-12-18T09:13:04.882Z,4.78
2018-12-18T09:14:14.608Z,4.78
2018-12-18T09:15:24.578Z,4.86
2018-12-18T09:16:34.034Z,4.82
2018-12-18T09:17:43.747Z,4.92
2018-12-18T09:18:53.719Z,4.86
2018-12-18T09:20:03.180Z,4.87
2018-12-18T09:21:12.935Z,4.98
2018-12-18T09:22:22.449Z,4.89
2018-12-18T09:23:32.417Z,5.02
2018-12-18T09:24:42.377Z,4.89
2018-12-18T09:25:52.538Z,4.95
2018-12-18T09:27:02.930Z,5.05
2018-12-18T09:28:12.652Z,5.02
2018-12-18T09:29:22.369Z,5.02
2018-12-18T09:30:32.327Z,5.04
2018-12-18T09:31:48.111Z,5.01
2018-12-18T09:32:58.069Z,5.1
2018-12-18T09:34:08.012Z,5.02
2018-12-18T09:35:17.724Z,5.08
2018-12-18T09:36:27.752Z,5.19
2018-12-18T09:37:37.495Z,5.12
2018-12-18T09:38:47.230Z,5.1
2018-12-18T09:39:57.206Z,5.18
2018-12-18T09:41:07.420Z,5.1
2018-12-18T09:42:17.276Z,5.18
2018-12-18T09:43:27.224Z,5.2
2018-12-18T09:44:37.192Z,5.23
2018-12-18T09:45:47.159Z,5.15
2018-12-18T09:46:56.884Z,5.2
2018-12-18T09:48:06.366Z,5.15
2018-12-18T09:49:16.336Z,5.22
2018-12-18T09:50:26.080Z,5.26
2018-12-18T09:51:36.016Z,5.28
2018-12-18T09:52:45.982Z,5.25
2018-12-18T09:53:55.425Z,5.19
2018-12-18T09:55:05.398Z,5.25
2018-12-18T09:56:15.558Z,5.34
2018-12-18T09:57:25.291Z,5.28
2018-12-18T09:58:35.243Z,5.33
2018-12-18T09:59:45.508Z,5.33
2018-12-18T10:00:55.878Z,5.34
2018-12-18T10:02:05.846Z,5.26
2018-12-18T10:03:15.806Z,5.28
2018-12-18T10:04:25.535Z,5.22
2018-12-18T10:05:35.488Z,5.19
2018-12-18T10:06:45.295Z,5.26
2018-12-18T10:07:55.246Z,5.25
2018-12-18T10:09:09.555Z,5.23
2018-12-18T10:10:19.702Z,5.25
2018-12-18T10:11:29.646Z,5.31
2018-12-18T10:12:39.098Z,5.34
2018-12-18T10:13:49.062Z,5.23
2018-12-18T10:14:59.009Z,5.25
2018-12-18T10:16:08.964Z,5.38
2018-12-18T10:17:19.178Z,5.36
2018-12-18T10:18:28.878Z,5.41
2018-12-18T10:19:38.823Z,5.47
2018-12-18T10:20:48.781Z,5.47
2018-12-18T10:21:58.746Z,5.46
2018-12-18T10:23:08.718Z,5.51
2018-12-18T10:24:19.142Z,5.58
2018-12-18T10:25:28.846Z,5.61
2018-12-18T10:26:38.792Z,5.61
2018-12-18T10:27:48.480Z,5.59
2018-12-18T10:28:58.176Z,5.58
2018-12-18T10:30:07.895Z,5.56
2018-12-18T10:31:18.830Z,5.52
2018-12-18T10:32:28.546Z,5.56
2018-12-18T10:33:38.530Z,5.58
2018-12-18T10:34:48.468Z,5.58
2018-12-18T10:36:02.879Z,5.55
2018-12-18T10:37:13.100Z,5.61
2018-12-18T10:38:23.112Z,5.58
2018-12-18T10:39:32.646Z,5.61
2018-12-18T10:40:42.743Z,5.62
2018-12-18T10:41:52.703Z,5.69
2018-12-18T10:43:02.413Z,5.65
2018-12-18T10:44:12.394Z,5.59
2018-12-18T10:45:22.336Z,5.67
2018-12-18T10:46:32.086Z,5.65
2018-12-18T10:47:42.148Z,5.7
2018-12-18T10:48:52.093Z,5.69
2018-12-18T10:50:02.090Z,5.72
2018-12-18T10:51:11.838Z,5.7
2018-12-18T10:52:21.525Z,5.77
2018-12-18T10:53:30.964Z,5.7
2018-12-18T10:54:40.925Z,5.77
2018-12-18T10:55:50.900Z,5.81
2018-12-18T10:57:00.908Z,5.76
2018-12-18T10:58:10.649Z,5.8
2018-12-18T10:59:20.626Z,5.76
2018-12-18T11:00:30.341Z,5.76
2018-12-18T11:01:40.334Z,5.84
2018-12-18T11:02:50.258Z,5.74
2018-12-18T11:03:59.808Z,5.79
2018-12-18T11:05:09.798Z,5.9
2018-12-18T11:06:19.508Z,5.83
2018-12-18T11:07:29.450Z,5.83
2018-12-18T11:08:39.412Z,5.8
2018-12-18T11:09:49.129Z,5.87
2018-12-18T11:10:59.128Z,5.9
2018-12-18T11:12:09.132Z,5.91
2018-12-18T11:13:19.113Z,5.88
2018-12-18T11:14:29.065Z,5.87
2018-12-18T11:15:39.061Z,5.95
2018-12-18T11:16:49.049Z,5.94
2018-12-18T11:17:58.760Z,6.01
2018-12-18T11:19:08.494Z,5.88
2018-12-18T11:20:18.485Z,5.91
2018-12-18T11:21:28.509Z,6.07
2018-12-18T11:22:38.508Z,6.07
2018-12-18T11:23:48.488Z,6.12
2018-12-18T11:24:58.190Z,6.09
2018-12-18T11:26:07.968Z,6.05
2018-12-18T11:27:17.942Z,6.16
2018-12-18T11:28:27.905Z,6.12
2018-12-18T11:29:37.874Z,6.17
2018-12-18T11:30:47.841Z,6.13
2018-12-18T11:31:57.809Z,6.19
2018-12-18T11:33:07.512Z,6.25
2018-12-18T11:34:16.956Z,6.22
2018-12-18T11:35:26.648Z,6.38
2018-12-18T11:36:36.596Z,6.38
2018-12-18T11:37:46.544Z,6.28
2018-12-18T11:38:56.265Z,6.29
2018-12-18T11:40:05.993Z,6.39
2018-12-18T11:41:15.958Z,6.57
2018-12-18T11:42:25.889Z,6.65
2018-12-18T11:43:35.582Z,6.7
2018-12-18T11:44:45.974Z,6.87
2018-12-18T11:45:55.457Z,7.03
2018-12-18T11:47:05.403Z,7.29
2018-12-18T11:48:15.428Z,7.56
2018-12-18T11:49:25.382Z,7.72
2018-12-18T11:50:35.377Z,8.13
2018-12-18T11:51:45.341Z,8.32
2018-12-18T11:52:55.350Z,8.21
2018-12-18T11:54:05.066Z,8.18
2018-12-18T11:55:15.023Z,8.17
2018-12-18T11:56:24.742Z,8.26
2018-12-18T11:57:34.423Z,8.36
2018-12-18T11:58:44.718Z,8.34
2018-12-18T11:59:54.166Z,8.32
2018-12-18T12:01:03.635Z,8.32
2018-12-18T12:02:13.069Z,8.34
2018-12-18T12:03:23.209Z,8.28
2018-12-18T12:04:33.032Z,8.27
2018-12-18T12:05:42.753Z,8.09
2018-12-18T12:06:52.282Z,8.02
2018-12-18T12:08:02.228Z,7.87
2018-12-18T12:09:12.184Z,7.64
2018-12-18T12:10:21.892Z,7.5
2018-12-18T12:11:31.590Z,7.5
2018-12-18T12:12:41.539Z,7.48
2018-12-18T12:13:51.250Z,7.55
2018-12-18T12:15:00.963Z,7.48
2018-12-18T12:16:10.924Z,7.29
2018-12-18T12:17:20.624Z,7.32
2018-12-18T12:18:30.327Z,7.14
2018-12-18T12:19:40.063Z,7.13
2018-12-18T12:20:50.011Z,7.18
2018-12-18T12:21:59.729Z,7.04
2018-12-18T12:23:09.453Z,7.03
2018-12-18T12:24:19.417Z,7
2018-12-18T12:25:29.371Z,6.95
2018-12-18T12:26:39.331Z,6.97
2018-12-18T12:27:49.023Z,6.82
2018-12-18T12:28:58.999Z,6.82
2018-12-18T12:30:08.970Z,6.82
2018-12-18T12:31:18.924Z,6.78
2018-12-18T12:32:28.937Z,6.71
2018-12-18T12:33:38.709Z,6.78
2018-12-18T12:34:48.161Z,6.74
2018-12-18T12:35:57.860Z,6.72
2018-12-18T12:37:07.298Z,6.67
2018-12-18T12:38:17.247Z,6.65
2018-12-18T12:39:27.219Z,6.64
2018-12-18T12:40:37.186Z,6.68
2018-12-18T12:41:47.141Z,6.85
2018-12-18T12:42:57.111Z,6.95
2018-12-18T12:44:07.089Z,7.1
2018-12-18T12:45:17.054Z,7.05
2018-12-18T12:46:27.005Z,7.15
2018-12-18T12:47:36.711Z,7.23
2018-12-18T12:48:46.173Z,7.31
2018-12-18T12:49:56.140Z,7.18
2018-12-18T12:51:06.147Z,7.21
2018-12-18T12:52:16.167Z,7.19
2018-12-18T12:53:25.892Z,7.04
2018-12-18T12:54:35.856Z,7
2018-12-18T12:55:45.820Z,6.87
2018-12-18T12:56:55.780Z,6.85
2018-12-18T12:58:05.818Z,6.8
2018-12-18T12:59:15.630Z,6.72
2018-12-18T13:00:25.545Z,6.64
2018-12-18T13:01:41.906Z,6.68
2018-12-18T13:02:51.793Z,6.7
2018-12-18T13:04:01.501Z,6.67
2018-12-18T13:05:11.206Z,6.59
2018-12-18T13:06:21.180Z,6.53
2018-12-18T13:07:31.134Z,6.53
2018-12-18T13:08:41.087Z,6.47
2018-12-18T13:09:51.054Z,6.41
2018-12-18T13:11:00.757Z,6.49
2018-12-18T13:12:10.705Z,6.41
2018-12-18T13:13:20.664Z,6.47
2018-12-18T13:14:30.664Z,6.5
2018-12-18T13:15:40.604Z,6.53
2018-12-18T13:16:50.806Z,6.57
2018-12-18T13:18:00.307Z,6.6
2018-12-18T13:19:10.257Z,6.59
2018-12-18T13:20:20.212Z,6.62
2018-12-18T13:21:29.679Z,6.6
2018-12-18T13:22:39.641Z,6.6
2018-12-18T13:23:49.595Z,6.6
2018-12-18T13:24:59.564Z,6.6
2018-12-18T13:26:09.548Z,6.59
2018-12-18T13:27:19.521Z,6.6
2018-12-18T13:28:29.235Z,6.57
2018-12-18T13:29:39.172Z,6.57
2018-12-18T13:30:49.195Z,6.53
2018-12-18T13:31:58.643Z,6.6
2018-12-18T13:33:08.612Z,6.71
2018-12-18T13:34:18.312Z,6.9
2018-12-18T13:35:28.287Z,6.87
2018-12-18T13:36:42.958Z,6.96
2018-12-18T13:37:52.831Z,7.05
2018-12-18T13:39:02.792Z,7.01
2018-12-18T13:40:12.546Z,7.15
2018-12-18T13:41:22.251Z,7.1
2018-12-18T13:42:32.193Z,7.18
2018-12-18T13:43:41.388Z,7.05
2018-12-18T13:44:51.126Z,7.07
2018-12-18T13:46:00.813Z,7.05
2018-12-18T13:47:10.779Z,7.05
2018-12-18T13:48:19.961Z,7.05
2018-12-18T13:49:29.901Z,7.01
2018-12-18T13:50:39.597Z,7.03
2018-12-18T13:51:49.045Z,7.07
2018-12-18T13:52:58.987Z,7.07
2018-12-18T13:54:08.955Z,7.05
2018-12-18T13:55:18.647Z,7
2018-12-18T13:56:28.346Z,7.01
2018-12-18T13:57:38.293Z,7.03
2018-12-18T13:58:48.235Z,7.05
2018-12-18T13:59:58.191Z,7
2018-12-18T14:01:08.153Z,6.97
2018-12-18T14:02:17.842Z,6.96
2018-12-18T14:03:27.782Z,7.05
2018-12-18T14:04:37.235Z,6.95
2018-12-18T14:05:46.970Z,6.87
2018-12-18T14:06:56.731Z,6.89
2018-12-18T14:08:06.682Z,6.93
2018-12-18T14:09:16.640Z,6.95
2018-12-18T14:10:26.355Z,6.86
2018-12-18T14:11:36.057Z,6.89
2018-12-18T14:12:45.534Z,6.93
2018-12-18T14:13:55.490Z,6.95
2018-12-18T14:15:05.452Z,6.93
2018-12-18T14:16:15.144Z,6.96
2018-12-18T14:17:24.883Z,6.93
2018-12-18T14:18:34.848Z,6.97
2018-12-18T14:19:44.820Z,6.97
2018-12-18T14:20:54.796Z,6.9
2018-12-18T14:22:04.753Z,6.95
2018-12-18T14:23:14.203Z,6.89
2018-12-18T14:24:24.169Z,7
2018-12-18T14:25:34.134Z,6.92
2018-12-18T14:26:44.086Z,6.93
2018-12-18T14:27:53.885Z,6.93
2018-12-18T14:29:03.577Z,6.9
2018-12-18T14:30:13.521Z,6.95
2018-12-18T14:31:22.948Z,6.96
2018-12-18T14:32:32.681Z,7
2018-12-18T14:33:42.619Z,6.93
2018-12-18T14:34:52.559Z,6.83
2018-12-18T14:36:02.514Z,6.89
2018-12-18T14:37:12.461Z,6.89
2018-12-18T14:38:22.445Z,6.82
2018-12-18T14:39:32.378Z,6.67
2018-12-18T14:40:42.145Z,6.67
2018-12-18T14:41:52.094Z,6.72
2018-12-18T14:43:02.051Z,6.59
2018-12-18T14:44:11.992Z,6.57
2018-12-18T14:45:21.942Z,6.54
2018-12-18T14:46:31.886Z,6.52
2018-12-18T14:47:41.825Z,6.49
2018-12-18T14:48:51.769Z,6.43
2018-12-18T14:50:03.023Z,6.39
2018-12-18T14:51:12.820Z,6.34
2018-12-18T14:52:22.503Z,6.28
2018-12-18T14:53:32.464Z,6.26
2018-12-18T14:54:42.452Z,6.16
2018-12-18T14:55:52.400Z,6.28
2018-12-18T14:57:02.077Z,6.16
2018-12-18T14:58:12.070Z,6.15
2018-12-18T14:59:21.767Z,6.12
2018-12-18T15:00:31.452Z,6.19
2018-12-18T15:01:41.468Z,6.09
2018-12-18T15:02:51.413Z,6.09
2018-12-18T15:04:01.146Z,6.07
2018-12-18T15:05:11.093Z,6.01
2018-12-18T15:06:21.291Z,5.98
2018-12-18T15:07:31.253Z,6.06
2018-12-18T15:08:41.225Z,6.09
2018-12-18T15:09:50.934Z,5.94
2018-12-18T15:11:00.616Z,5.94
2018-12-18T15:12:10.561Z,5.94
2018-12-18T15:13:20.261Z,5.91
2018-12-18T15:14:29.962Z,5.94
2018-12-18T15:15:39.644Z,5.9
2018-12-18T15:16:49.826Z,5.88
2018-12-18T15:17:59.778Z,5.87
2018-12-18T15:19:09.763Z,5.87
2018-12-18T15:20:19.740Z,5.81
2018-12-18T15:21:29.680Z,5.81
2018-12-18T15:22:39.374Z,5.73
2018-12-18T15:23:49.340Z,5.67
2018-12-18T15:24:59.271Z,5.69
2018-12-18T15:26:09.230Z,5.77
2018-12-18T15:27:18.670Z,5.7
2018-12-18T15:28:28.620Z,5.69
2018-12-18T15:29:38.316Z,5.59
2018-12-18T15:30:48.062Z,5.61
2018-12-18T15:31:57.520Z,5.54
2018-12-18T15:33:07.223Z,5.56
2018-12-18T15:34:17.147Z,5.4
2018-12-18T15:35:26.572Z,5.55